sensor_id;sensor_type;location;lat;lon;timestamp;P1;durP1;ratioP1;P2;durP2;ratioP2
39266;SDS011;24967;51.154;13.812;2023-05-07T00:02:26;26.80;;;17.58;;
39266;SDS011;24967;51.154;13.812;2023-05-07T00:04:53;26.88;;;18.33;;
39266;SDS011;24967;51.154;13.812;2023-05-07T00:07:20;26.65;;;18.25;;
39266;SDS011;24967;51.154;13.812;2023-05-07T00:09:46;28.05;;;17.77;;
39266;SDS011;24967;51.154;13.812;2023-05-07T00:12:13;27.27;;;17.63;;
39266;SDS011;24967;51.154;13.812;2023-05-07T00:14:39;30.17;;;19.58;;
39266;SDS011;24967;51.154;13.812;2023-05-07T00:17:06;29.98;;;18.83;;
39266;SDS011;24967;51.154;13.812;2023-05-07T00:19:32;27.17;;;18.50;;
39266;SDS011;24967;51.154;13.812;2023-05-07T00:22:00;25.48;;;17.33;;
39266;SDS011;24967;51.154;13.812;2023-05-07T00:24:26;30.25;;;20.00;;
39266;SDS011;24967;51.154;13.812;2023-05-07T00:26:53;27.15;;;17.33;;
39266;SDS011;24967;51.154;13.812;2023-05-07T00:29:19;25.40;;;17.83;;
39266;SDS011;24967;51.154;13.812;2023-05-07T00:31:46;25.38;;;17.42;;
39266;SDS011;24967;51.154;13.812;2023-05-07T00:34:12;29.63;;;19.02;;
39266;SDS011;24967;51.154;13.812;2023-05-07T00:36:38;24.45;;;16.88;;
39266;SDS011;24967;51.154;13.812;2023-05-07T00:39:06;24.70;;;17.35;;
39266;SDS011;24967;51.154;13.812;2023-05-07T00:41:33;25.05;;;17.85;;
39266;SDS011;24967;51.154;13.812;2023-05-07T00:44:00;25.10;;;16.27;;
39266;SDS011;24967;51.154;13.812;2023-05-07T00:46:27;26.30;;;17.13;;
39266;SDS011;24967;51.154;13.812;2023-05-07T00:48:55;23.35;;;16.52;;
39266;SDS011;24967;51.154;13.812;2023-05-07T00:51:21;24.63;;;16.33;;
39266;SDS011;24967;51.154;13.812;2023-05-07T00:53:48;24.35;;;15.75;;
39266;SDS011;24967;51.154;13.812;2023-05-07T00:56:16;23.33;;;16.40;;
39266;SDS011;24967;51.154;13.812;2023-05-07T00:58:42;23.23;;;17.17;;
39266;SDS011;24967;51.154;13.812;2023-05-07T01:01:09;27.55;;;17.73;;
39266;SDS011;24967;51.154;13.812;2023-05-07T01:03:35;25.48;;;16.65;;
39266;SDS011;24967;51.154;13.812;2023-05-07T01:06:02;22.30;;;16.80;;
39266;SDS011;24967;51.154;13.812;2023-05-07T01:08:30;22.67;;;16.50;;
39266;SDS011;24967;51.154;13.812;2023-05-07T01:11:00;27.52;;;17.00;;
39266;SDS011;24967;51.154;13.812;2023-05-07T01:13:28;22.70;;;16.48;;
39266;SDS011;24967;51.154;13.812;2023-05-07T01:15:55;23.63;;;17.25;;
39266;SDS011;24967;51.154;13.812;2023-05-07T01:18:21;22.90;;;15.85;;
39266;SDS011;24967;51.154;13.812;2023-05-07T01:20:48;21.15;;;15.48;;
39266;SDS011;24967;51.154;13.812;2023-05-07T01:23:16;20.13;;;15.30;;
39266;SDS011;24967;51.154;13.812;2023-05-07T01:25:50;24.77;;;16.85;;
39266;SDS011;24967;51.154;13.812;2023-05-07T01:28:17;25.75;;;16.50;;
39266;SDS011;24967;51.154;13.812;2023-05-07T01:30:43;24.77;;;16.10;;
39266;SDS011;24967;51.154;13.812;2023-05-07T01:33:14;28.67;;;18.10;;
39266;SDS011;24967;51.154;13.812;2023-05-07T01:35:45;25.33;;;17.20;;
39266;SDS011;24967;51.154;13.812;2023-05-07T01:38:15;27.10;;;18.42;;
39266;SDS011;24967;51.154;13.812;2023-05-07T01:40:42;25.17;;;15.93;;
39266;SDS011;24967;51.154;13.812;2023-05-07T01:43:09;26.52;;;16.90;;
39266;SDS011;24967;51.154;13.812;2023-05-07T01:45:36;26.98;;;17.73;;
39266;SDS011;24967;51.154;13.812;2023-05-07T01:48:05;24.92;;;16.45;;
39266;SDS011;24967;51.154;13.812;2023-05-07T01:50:33;22.58;;;15.77;;
39266;SDS011;24967;51.154;13.812;2023-05-07T01:53:01;21.70;;;14.45;;
39266;SDS011;24967;51.154;13.812;2023-05-07T01:55:28;21.88;;;14.52;;
39266;SDS011;24967;51.154;13.812;2023-05-07T01:57:55;19.38;;;14.40;;
39266;SDS011;24967;51.154;13.812;2023-05-07T02:00:21;21.90;;;14.77;;
39266;SDS011;24967;51.154;13.812;2023-05-07T02:02:48;19.98;;;14.20;;
39266;SDS011;24967;51.154;13.812;2023-05-07T02:05:15;17.90;;;14.23;;
39266;SDS011;24967;51.154;13.812;2023-05-07T02:07:41;22.92;;;15.07;;
39266;SDS011;24967;51.154;13.812;2023-05-07T02:10:08;19.55;;;14.73;;
39266;SDS011;24967;51.154;13.812;2023-05-07T02:12:36;21.45;;;15.13;;
39266;SDS011;24967;51.154;13.812;2023-05-07T02:15:03;22.13;;;14.93;;
39266;SDS011;24967;51.154;13.812;2023-05-07T02:17:30;19.95;;;14.70;;
39266;SDS011;24967;51.154;13.812;2023-05-07T02:19:58;20.38;;;15.85;;
39266;SDS011;24967;51.154;13.812;2023-05-07T02:22:24;18.92;;;13.40;;
39266;SDS011;24967;51.154;13.812;2023-05-07T02:24:51;19.75;;;14.25;;
39266;SDS011;24967;51.154;13.812;2023-05-07T02:27:17;19.50;;;13.93;;
39266;SDS011;24967;51.154;13.812;2023-05-07T02:29:45;19.92;;;14.02;;
39266;SDS011;24967;51.154;13.812;2023-05-07T02:32:12;18.63;;;13.82;;
39266;SDS011;24967;51.154;13.812;2023-05-07T02:34:38;23.48;;;16.42;;
39266;SDS011;24967;51.154;13.812;2023-05-07T02:37:05;23.75;;;14.90;;
39266;SDS011;24967;51.154;13.812;2023-05-07T02:39:31;20.30;;;15.18;;
39266;SDS011;24967;51.154;13.812;2023-05-07T02:41:58;25.67;;;15.95;;
39266;SDS011;24967;51.154;13.812;2023-05-07T02:44:24;21.33;;;14.38;;
39266;SDS011;24967;51.154;13.812;2023-05-07T02:46:52;19.98;;;14.43;;
39266;SDS011;24967;51.154;13.812;2023-05-07T02:49:18;23.20;;;14.63;;
39266;SDS011;24967;51.154;13.812;2023-05-07T02:51:45;20.38;;;14.90;;
39266;SDS011;24967;51.154;13.812;2023-05-07T02:54:12;24.52;;;16.02;;
39266;SDS011;24967;51.154;13.812;2023-05-07T02:56:38;20.33;;;14.30;;
39266;SDS011;24967;51.154;13.812;2023-05-07T02:59:05;21.65;;;14.68;;
39266;SDS011;24967;51.154;13.812;2023-05-07T03:01:31;20.98;;;14.02;;
39266;SDS011;24967;51.154;13.812;2023-05-07T03:03:59;19.92;;;13.90;;
39266;SDS011;24967;51.154;13.812;2023-05-07T03:06:25;21.90;;;14.82;;
39266;SDS011;24967;51.154;13.812;2023-05-07T03:08:52;25.27;;;16.20;;
39266;SDS011;24967;51.154;13.812;2023-05-07T03:11:18;27.77;;;15.77;;
39266;SDS011;24967;51.154;13.812;2023-05-07T03:13:44;24.92;;;15.93;;
39266;SDS011;24967;51.154;13.812;2023-05-07T03:16:11;27.17;;;17.08;;
39266;SDS011;24967;51.154;13.812;2023-05-07T03:18:38;28.35;;;17.60;;
39266;SDS011;24967;51.154;13.812;2023-05-07T03:21:05;24.42;;;16.60;;
39266;SDS011;24967;51.154;13.812;2023-05-07T03:23:32;25.33;;;16.55;;
39266;SDS011;24967;51.154;13.812;2023-05-07T03:25:58;28.20;;;17.13;;
39266;SDS011;24967;51.154;13.812;2023-05-07T03:28:25;27.13;;;16.35;;
39266;SDS011;24967;51.154;13.812;2023-05-07T03:30:51;27.45;;;16.38;;
39266;SDS011;24967;51.154;13.812;2023-05-07T03:33:17;25.00;;;17.15;;
39266;SDS011;24967;51.154;13.812;2023-05-07T03:35:44;25.92;;;16.95;;
39266;SDS011;24967;51.154;13.812;2023-05-07T03:38:12;25.70;;;15.75;;
39266;SDS011;24967;51.154;13.812;2023-05-07T03:40:38;23.13;;;14.95;;
39266;SDS011;24967;51.154;13.812;2023-05-07T03:43:05;22.75;;;14.85;;
39266;SDS011;24967;51.154;13.812;2023-05-07T03:45:31;21.55;;;15.07;;
39266;SDS011;24967;51.154;13.812;2023-05-07T03:47:58;23.25;;;15.82;;
39266;SDS011;24967;51.154;13.812;2023-05-07T03:50:24;24.38;;;15.32;;
39266;SDS011;24967;51.154;13.812;2023-05-07T03:52:50;27.33;;;15.43;;
39266;SDS011;24967;51.154;13.812;2023-05-07T03:55:18;25.92;;;15.80;;
39266;SDS011;24967;51.154;13.812;2023-05-07T03:57:45;26.35;;;15.82;;
39266;SDS011;24967;51.154;13.812;2023-05-07T04:00:12;25.98;;;15.02;;
39266;SDS011;24967;51.154;13.812;2023-05-07T04:02:39;25.92;;;16.48;;
39266;SDS011;24967;51.154;13.812;2023-05-07T04:05:05;26.40;;;16.17;;
39266;SDS011;24967;51.154;13.812;2023-05-07T04:07:32;24.05;;;16.20;;
39266;SDS011;24967;51.154;13.812;2023-05-07T04:09:59;25.52;;;16.83;;
39266;SDS011;24967;51.154;13.812;2023-05-07T04:12:27;27.45;;;16.52;;
39266;SDS011;24967;51.154;13.812;2023-05-07T04:14:53;27.80;;;16.10;;
39266;SDS011;24967;51.154;13.812;2023-05-07T04:17:19;23.92;;;16.02;;
39266;SDS011;24967;51.154;13.812;2023-05-07T04:19:46;23.88;;;15.48;;
39266;SDS011;24967;51.154;13.812;2023-05-07T04:22:12;26.50;;;17.13;;
39266;SDS011;24967;51.154;13.812;2023-05-07T04:24:39;26.02;;;16.45;;
39266;SDS011;24967;51.154;13.812;2023-05-07T04:27:05;23.80;;;16.02;;
39266;SDS011;24967;51.154;13.812;2023-05-07T04:29:33;26.58;;;16.15;;
39266;SDS011;24967;51.154;13.812;2023-05-07T04:32:00;22.75;;;14.90;;
39266;SDS011;24967;51.154;13.812;2023-05-07T04:34:26;22.13;;;14.90;;
39266;SDS011;24967;51.154;13.812;2023-05-07T04:36:52;25.50;;;14.80;;
39266;SDS011;24967;51.154;13.812;2023-05-07T04:39:19;28.13;;;14.80;;
39266;SDS011;24967;51.154;13.812;2023-05-07T04:41:45;25.70;;;15.77;;
39266;SDS011;24967;51.154;13.812;2023-05-07T04:44:12;24.92;;;14.88;;
39266;SDS011;24967;51.154;13.812;2023-05-07T04:46:39;24.13;;;14.60;;
39266;SDS011;24967;51.154;13.812;2023-05-07T04:49:06;20.33;;;13.25;;
39266;SDS011;24967;51.154;13.812;2023-05-07T04:51:32;20.63;;;13.68;;
39266;SDS011;24967;51.154;13.812;2023-05-07T04:53:59;19.90;;;13.45;;
39266;SDS011;24967;51.154;13.812;2023-05-07T04:56:27;22.08;;;14.13;;
39266;SDS011;24967;51.154;13.812;2023-05-07T04:58:53;21.15;;;13.40;;
39266;SDS011;24967;51.154;13.812;2023-05-07T05:01:20;23.77;;;13.63;;
39266;SDS011;24967;51.154;13.812;2023-05-07T05:03:48;19.80;;;13.85;;
39266;SDS011;24967;51.154;13.812;2023-05-07T05:06:14;24.77;;;14.90;;
39266;SDS011;24967;51.154;13.812;2023-05-07T05:08:40;20.60;;;14.13;;
39266;SDS011;24967;51.154;13.812;2023-05-07T05:11:07;22.95;;;13.93;;
39266;SDS011;24967;51.154;13.812;2023-05-07T05:13:33;19.70;;;12.98;;
39266;SDS011;24967;51.154;13.812;2023-05-07T05:16:00;19.85;;;13.13;;
39266;SDS011;24967;51.154;13.812;2023-05-07T05:18:26;18.65;;;12.10;;
39266;SDS011;24967;51.154;13.812;2023-05-07T05:20:54;21.98;;;13.32;;
39266;SDS011;24967;51.154;13.812;2023-05-07T05:23:20;17.67;;;12.75;;
39266;SDS011;24967;51.154;13.812;2023-05-07T05:25:47;20.80;;;12.68;;
39266;SDS011;24967;51.154;13.812;2023-05-07T05:28:13;19.15;;;11.75;;
39266;SDS011;24967;51.154;13.812;2023-05-07T05:30:39;18.98;;;12.50;;
39266;SDS011;24967;51.154;13.812;2023-05-07T05:33:06;19.55;;;11.88;;
39266;SDS011;24967;51.154;13.812;2023-05-07T05:35:32;18.20;;;12.48;;
39266;SDS011;24967;51.154;13.812;2023-05-07T05:38:01;15.80;;;11.50;;
39266;SDS011;24967;51.154;13.812;2023-05-07T05:40:28;16.50;;;11.57;;
39266;SDS011;24967;51.154;13.812;2023-05-07T05:42:55;20.10;;;11.55;;
39266;SDS011;24967;51.154;13.812;2023-05-07T05:45:21;18.35;;;12.00;;
39266;SDS011;24967;51.154;13.812;2023-05-07T05:47:47;14.85;;;11.18;;
39266;SDS011;24967;51.154;13.812;2023-05-07T05:50:14;16.83;;;11.18;;
39266;SDS011;24967;51.154;13.812;2023-05-07T05:52:40;15.95;;;11.40;;
39266;SDS011;24967;51.154;13.812;2023-05-07T05:55:08;15.40;;;10.85;;
39266;SDS011;24967;51.154;13.812;2023-05-07T05:57:35;14.85;;;10.48;;
39266;SDS011;24967;51.154;13.812;2023-05-07T06:00:02;16.33;;;10.85;;
39266;SDS011;24967;51.154;13.812;2023-05-07T06:02:30;13.25;;;10.75;;
39266;SDS011;24967;51.154;13.812;2023-05-07T06:04:56;13.07;;;10.23;;
39266;SDS011;24967;51.154;13.812;2023-05-07T06:07:22;13.38;;;10.18;;
39266;SDS011;24967;51.154;13.812;2023-05-07T06:09:49;13.73;;;10.52;;
39266;SDS011;24967;51.154;13.812;2023-05-07T06:12:17;12.35;;;10.07;;
39266;SDS011;24967;51.154;13.812;2023-05-07T06:14:43;15.18;;;10.52;;
39266;SDS011;24967;51.154;13.812;2023-05-07T06:17:10;13.13;;;10.50;;
39266;SDS011;24967;51.154;13.812;2023-05-07T06:19:36;12.90;;;10.40;;
39266;SDS011;24967;51.154;13.812;2023-05-07T06:22:02;14.18;;;9.75;;
39266;SDS011;24967;51.154;13.812;2023-05-07T06:24:29;12.00;;;9.60;;
39266;SDS011;24967;51.154;13.812;2023-05-07T06:26:55;15.45;;;9.82;;
39266;SDS011;24967;51.154;13.812;2023-05-07T06:29:24;12.02;;;10.18;;
39266;SDS011;24967;51.154;13.812;2023-05-07T06:31:51;13.63;;;10.25;;
39266;SDS011;24967;51.154;13.812;2023-05-07T06:34:18;11.18;;;9.27;;
39266;SDS011;24967;51.154;13.812;2023-05-07T06:36:44;13.15;;;9.18;;
39266;SDS011;24967;51.154;13.812;2023-05-07T06:39:11;11.82;;;9.00;;
39266;SDS011;24967;51.154;13.812;2023-05-07T06:41:37;13.65;;;9.05;;
39266;SDS011;24967;51.154;13.812;2023-05-07T06:44:04;10.70;;;8.77;;
39266;SDS011;24967;51.154;13.812;2023-05-07T06:46:31;9.95;;;8.13;;
39266;SDS011;24967;51.154;13.812;2023-05-07T06:48:58;9.27;;;8.32;;
39266;SDS011;24967;51.154;13.812;2023-05-07T06:51:24;8.07;;;7.28;;
39266;SDS011;24967;51.154;13.812;2023-05-07T06:53:51;7.50;;;6.18;;
39266;SDS011;24967;51.154;13.812;2023-05-07T06:56:18;7.75;;;6.03;;
39266;SDS011;24967;51.154;13.812;2023-05-07T06:58:44;6.13;;;5.63;;
39266;SDS011;24967;51.154;13.812;2023-05-07T07:01:11;6.07;;;5.57;;
39266;SDS011;24967;51.154;13.812;2023-05-07T07:03:39;5.80;;;5.30;;
39266;SDS011;24967;51.154;13.812;2023-05-07T07:06:05;5.25;;;4.85;;
39266;SDS011;24967;51.154;13.812;2023-05-07T07:08:32;4.55;;;4.25;;
39266;SDS011;24967;51.154;13.812;2023-05-07T07:10:59;4.57;;;4.28;;
39266;SDS011;24967;51.154;13.812;2023-05-07T07:13:25;4.82;;;4.43;;
39266;SDS011;24967;51.154;13.812;2023-05-07T07:15:52;3.92;;;3.65;;
39266;SDS011;24967;51.154;13.812;2023-05-07T07:18:18;4.43;;;4.03;;
39266;SDS011;24967;51.154;13.812;2023-05-07T07:20:46;4.40;;;4.10;;
39266;SDS011;24967;51.154;13.812;2023-05-07T07:23:13;4.15;;;3.75;;
39266;SDS011;24967;51.154;13.812;2023-05-07T07:25:39;3.70;;;3.50;;
39266;SDS011;24967;51.154;13.812;2023-05-07T07:28:06;4.18;;;3.85;;
39266;SDS011;24967;51.154;13.812;2023-05-07T07:30:32;4.10;;;3.83;;
39266;SDS011;24967;51.154;13.812;2023-05-07T07:32:59;4.25;;;3.95;;
39266;SDS011;24967;51.154;13.812;2023-05-07T07:35:27;4.10;;;3.80;;
39266;SDS011;24967;51.154;13.812;2023-05-07T07:37:55;3.72;;;3.53;;
39266;SDS011;24967;51.154;13.812;2023-05-07T07:40:21;4.28;;;3.97;;
39266;SDS011;24967;51.154;13.812;2023-05-07T07:42:48;3.90;;;3.53;;
39266;SDS011;24967;51.154;13.812;2023-05-07T07:45:14;4.57;;;4.28;;
39266;SDS011;24967;51.154;13.812;2023-05-07T07:47:41;4.43;;;4.03;;
39266;SDS011;24967;51.154;13.812;2023-05-07T07:50:07;4.53;;;4.22;;
39266;SDS011;24967;51.154;13.812;2023-05-07T07:52:34;4.20;;;3.90;;
39266;SDS011;24967;51.154;13.812;2023-05-07T07:55:03;4.97;;;4.57;;
39266;SDS011;24967;51.154;13.812;2023-05-07T07:57:30;4.63;;;4.22;;
39266;SDS011;24967;51.154;13.812;2023-05-07T07:59:56;4.97;;;4.50;;
39266;SDS011;24967;51.154;13.812;2023-05-07T08:02:23;4.68;;;4.38;;
39266;SDS011;24967;51.154;13.812;2023-05-07T08:04:50;4.75;;;4.35;;
39266;SDS011;24967;51.154;13.812;2023-05-07T08:07:16;4.82;;;4.43;;
39266;SDS011;24967;51.154;13.812;2023-05-07T08:09:45;4.78;;;4.43;;
39266;SDS011;24967;51.154;13.812;2023-05-07T08:12:13;5.75;;;5.28;;
39266;SDS011;24967;51.154;13.812;2023-05-07T08:14:39;6.32;;;5.82;;
39266;SDS011;24967;51.154;13.812;2023-05-07T08:17:06;6.65;;;5.95;;
39266;SDS011;24967;51.154;13.812;2023-05-07T08:19:34;7.22;;;6.53;;
39266;SDS011;24967;51.154;13.812;2023-05-07T08:22:01;7.93;;;7.13;;
39266;SDS011;24967;51.154;13.812;2023-05-07T08:24:29;9.27;;;7.80;;
39266;SDS011;24967;51.154;13.812;2023-05-07T08:26:55;8.77;;;7.47;;
39266;SDS011;24967;51.154;13.812;2023-05-07T08:29:23;9.85;;;7.75;;
39266;SDS011;24967;51.154;13.812;2023-05-07T08:31:49;9.23;;;8.23;;
39266;SDS011;24967;51.154;13.812;2023-05-07T08:34:16;11.65;;;7.55;;
39266;SDS011;24967;51.154;13.812;2023-05-07T08:36:42;8.98;;;7.78;;
39266;SDS011;24967;51.154;13.812;2023-05-07T08:39:08;8.05;;;6.85;;
39266;SDS011;24967;51.154;13.812;2023-05-07T08:41:35;9.45;;;7.78;;
39266;SDS011;24967;51.154;13.812;2023-05-07T08:44:02;9.68;;;7.90;;
39266;SDS011;24967;51.154;13.812;2023-05-07T08:46:31;10.07;;;8.73;;
39266;SDS011;24967;51.154;13.812;2023-05-07T08:48:58;9.93;;;8.40;;
39266;SDS011;24967;51.154;13.812;2023-05-07T08:51:24;11.98;;;7.57;;
39266;SDS011;24967;51.154;13.812;2023-05-07T08:53:52;10.75;;;8.15;;
39266;SDS011;24967;51.154;13.812;2023-05-07T08:56:18;9.02;;;7.82;;
39266;SDS011;24967;51.154;13.812;2023-05-07T08:58:46;8.68;;;7.50;;
39266;SDS011;24967;51.154;13.812;2023-05-07T09:01:13;9.85;;;8.10;;
39266;SDS011;24967;51.154;13.812;2023-05-07T09:03:42;9.52;;;7.43;;
39266;SDS011;24967;51.154;13.812;2023-05-07T09:06:10;8.35;;;7.50;;
39266;SDS011;24967;51.154;13.812;2023-05-07T09:08:37;9.32;;;8.43;;
39266;SDS011;24967;51.154;13.812;2023-05-07T09:11:03;10.32;;;8.02;;
39266;SDS011;24967;51.154;13.812;2023-05-07T09:13:30;9.18;;;7.95;;
39266;SDS011;24967;51.154;13.812;2023-05-07T09:15:56;8.82;;;7.65;;
39266;SDS011;24967;51.154;13.812;2023-05-07T09:18:23;9.18;;;8.27;;
39266;SDS011;24967;51.154;13.812;2023-05-07T09:20:51;8.20;;;7.47;;
39266;SDS011;24967;51.154;13.812;2023-05-07T09:23:17;8.63;;;7.57;;
39266;SDS011;24967;51.154;13.812;2023-05-07T09:25:44;8.50;;;7.70;;
39266;SDS011;24967;51.154;13.812;2023-05-07T09:28:10;8.05;;;7.32;;
39266;SDS011;24967;51.154;13.812;2023-05-07T09:30:37;10.55;;;7.97;;
39266;SDS011;24967;51.154;13.812;2023-05-07T09:33:03;12.75;;;8.00;;
39266;SDS011;24967;51.154;13.812;2023-05-07T09:35:30;9.23;;;7.88;;
39266;SDS011;24967;51.154;13.812;2023-05-07T09:37:58;8.20;;;7.40;;
39266;SDS011;24967;51.154;13.812;2023-05-07T09:40:26;9.57;;;7.90;;
39266;SDS011;24967;51.154;13.812;2023-05-07T09:42:54;9.55;;;8.20;;
39266;SDS011;24967;51.154;13.812;2023-05-07T09:45:21;12.13;;;9.40;;
39266;SDS011;24967;51.154;13.812;2023-05-07T09:47:49;12.40;;;8.48;;
39266;SDS011;24967;51.154;13.812;2023-05-07T09:50:19;10.02;;;7.90;;
39266;SDS011;24967;51.154;13.812;2023-05-07T09:52:47;8.93;;;8.02;;
39266;SDS011;24967;51.154;13.812;2023-05-07T09:55:16;8.93;;;7.60;;
39266;SDS011;24967;51.154;13.812;2023-05-07T09:57:43;11.18;;;7.95;;
39266;SDS011;24967;51.154;13.812;2023-05-07T10:00:11;9.32;;;7.97;;
39266;SDS011;24967;51.154;13.812;2023-05-07T10:02:39;9.02;;;8.10;;
39266;SDS011;24967;51.154;13.812;2023-05-07T10:05:11;10.23;;;8.07;;
39266;SDS011;24967;51.154;13.812;2023-05-07T10:07:38;8.13;;;7.28;;
39266;SDS011;24967;51.154;13.812;2023-05-07T10:10:06;7.80;;;7.10;;
39266;SDS011;24967;51.154;13.812;2023-05-07T10:12:34;8.07;;;7.28;;
39266;SDS011;24967;51.154;13.812;2023-05-07T10:15:04;8.23;;;7.35;;
39266;SDS011;24967;51.154;13.812;2023-05-07T10:17:32;8.00;;;7.28;;
39266;SDS011;24967;51.154;13.812;2023-05-07T10:20:01;7.32;;;6.63;;
39266;SDS011;24967;51.154;13.812;2023-05-07T10:22:27;8.13;;;6.95;;
39266;SDS011;24967;51.154;13.812;2023-05-07T10:24:58;7.60;;;6.80;;
39266;SDS011;24967;51.154;13.812;2023-05-07T10:27:28;8.05;;;7.05;;
39266;SDS011;24967;51.154;13.812;2023-05-07T10:30:00;8.43;;;7.07;;
39266;SDS011;24967;51.154;13.812;2023-05-07T10:32:39;8.27;;;7.45;;
39266;SDS011;24967;51.154;13.812;2023-05-07T10:35:10;8.93;;;7.35;;
39266;SDS011;24967;51.154;13.812;2023-05-07T10:37:42;8.20;;;7.40;;
39266;SDS011;24967;51.154;13.812;2023-05-07T10:40:10;9.93;;;7.35;;
39266;SDS011;24967;51.154;13.812;2023-05-07T10:42:37;9.50;;;8.13;;
39266;SDS011;24967;51.154;13.812;2023-05-07T10:45:14;8.93;;;8.13;;
39266;SDS011;24967;51.154;13.812;2023-05-07T10:50:33;7.63;;;6.88;;
39266;SDS011;24967;51.154;13.812;2023-05-07T10:55:49;7.00;;;6.40;;
39266;SDS011;24967;51.154;13.812;2023-05-07T10:58:22;7.55;;;6.70;;
39266;SDS011;24967;51.154;13.812;2023-05-07T11:00:55;6.85;;;6.25;;
39266;SDS011;24967;51.154;13.812;2023-05-07T11:03:23;6.35;;;5.85;;
39266;SDS011;24967;51.154;13.812;2023-05-07T11:06:08;6.35;;;5.85;;
39266;SDS011;24967;51.154;13.812;2023-05-07T11:08:54;5.85;;;5.22;;
39266;SDS011;24967;51.154;13.812;2023-05-07T11:14:10;5.93;;;5.43;;
39266;SDS011;24967;51.154;13.812;2023-05-07T11:16:38;6.57;;;5.97;;
39266;SDS011;24967;51.154;13.812;2023-05-07T11:19:06;6.85;;;6.25;;
39266;SDS011;24967;51.154;13.812;2023-05-07T11:21:33;5.95;;;5.40;;
39266;SDS011;24967;51.154;13.812;2023-05-07T11:24:01;6.15;;;5.65;;
39266;SDS011;24967;51.154;13.812;2023-05-07T11:26:29;6.22;;;5.72;;
39266;SDS011;24967;51.154;13.812;2023-05-07T11:28:57;5.20;;;4.85;;
39266;SDS011;24967;51.154;13.812;2023-05-07T11:31:25;6.05;;;5.55;;
39266;SDS011;24967;51.154;13.812;2023-05-07T11:33:55;6.18;;;5.40;;
39266;SDS011;24967;51.154;13.812;2023-05-07T11:36:23;5.40;;;4.90;;
39266;SDS011;24967;51.154;13.812;2023-05-07T11:38:51;5.82;;;5.20;;
39266;SDS011;24967;51.154;13.812;2023-05-07T11:41:18;5.90;;;5.40;;
39266;SDS011;24967;51.154;13.812;2023-05-07T11:43:55;5.78;;;5.28;;
39266;SDS011;24967;51.154;13.812;2023-05-07T11:46:22;5.72;;;5.22;;
39266;SDS011;24967;51.154;13.812;2023-05-07T11:48:49;6.32;;;5.75;;
39266;SDS011;24967;51.154;13.812;2023-05-07T11:51:20;5.25;;;4.90;;
39266;SDS011;24967;51.154;13.812;2023-05-07T11:56:14;6.53;;;5.60;;
39266;SDS011;24967;51.154;13.812;2023-05-07T11:58:41;6.07;;;5.57;;
39266;SDS011;24967;51.154;13.812;2023-05-07T12:01:09;6.10;;;5.55;;
39266;SDS011;24967;51.154;13.812;2023-05-07T12:03:36;6.35;;;5.85;;
39266;SDS011;24967;51.154;13.812;2023-05-07T12:06:05;5.75;;;5.35;;
39266;SDS011;24967;51.154;13.812;2023-05-07T12:08:35;5.68;;;5.18;;
39266;SDS011;24967;51.154;13.812;2023-05-07T12:11:02;5.63;;;5.23;;
39266;SDS011;24967;51.154;13.812;2023-05-07T12:13:28;5.50;;;5.10;;
39266;SDS011;24967;51.154;13.812;2023-05-07T12:15:56;8.57;;;5.45;;
39266;SDS011;24967;51.154;13.812;2023-05-07T12:18:23;5.82;;;5.32;;
39266;SDS011;24967;51.154;13.812;2023-05-07T12:20:50;5.32;;;4.82;;
39266;SDS011;24967;51.154;13.812;2023-05-07T12:23:17;5.80;;;5.32;;
39266;SDS011;24967;51.154;13.812;2023-05-07T12:25:45;5.80;;;5.40;;
39266;SDS011;24967;51.154;13.812;2023-05-07T12:28:12;6.15;;;5.75;;
39266;SDS011;24967;51.154;13.812;2023-05-07T12:30:40;6.90;;;6.22;;
39266;SDS011;24967;51.154;13.812;2023-05-07T12:33:08;7.00;;;6.40;;
39266;SDS011;24967;51.154;13.812;2023-05-07T12:35:35;6.45;;;5.95;;
39266;SDS011;24967;51.154;13.812;2023-05-07T12:38:07;6.15;;;5.65;;
39266;SDS011;24967;51.154;13.812;2023-05-07T12:40:37;5.93;;;5.43;;
39266;SDS011;24967;51.154;13.812;2023-05-07T12:43:05;5.40;;;5.00;;
39266;SDS011;24967;51.154;13.812;2023-05-07T12:45:35;8.43;;;5.53;;
39266;SDS011;24967;51.154;13.812;2023-05-07T12:50:33;4.28;;;3.97;;
39266;SDS011;24967;51.154;13.812;2023-05-07T12:52:59;5.20;;;4.85;;
39266;SDS011;24967;51.154;13.812;2023-05-07T12:55:28;4.25;;;3.95;;
39266;SDS011;24967;51.154;13.812;2023-05-07T12:57:55;4.22;;;3.92;;
39266;SDS011;24967;51.154;13.812;2023-05-07T13:00:36;4.57;;;4.28;;
39266;SDS011;24967;51.154;13.812;2023-05-07T13:03:04;4.15;;;3.85;;
39266;SDS011;24967;51.154;13.812;2023-05-07T13:05:30;4.35;;;4.10;;
39266;SDS011;24967;51.154;13.812;2023-05-07T13:07:57;4.43;;;4.13;;
39266;SDS011;24967;51.154;13.812;2023-05-07T13:10:24;3.92;;;3.70;;
39266;SDS011;24967;51.154;13.812;2023-05-07T13:12:51;3.83;;;3.63;;
39266;SDS011;24967;51.154;13.812;2023-05-07T13:15:18;4.00;;;3.80;;
39266;SDS011;24967;51.154;13.812;2023-05-07T13:17:46;4.85;;;4.45;;
39266;SDS011;24967;51.154;13.812;2023-05-07T13:20:12;4.28;;;3.88;;
39266;SDS011;24967;51.154;13.812;2023-05-07T13:22:39;4.20;;;3.90;;
39266;SDS011;24967;51.154;13.812;2023-05-07T13:25:06;4.22;;;4.03;;
39266;SDS011;24967;51.154;13.812;2023-05-07T13:27:33;3.47;;;3.28;;
39266;SDS011;24967;51.154;13.812;2023-05-07T13:30:01;4.45;;;4.15;;
39266;SDS011;24967;51.154;13.812;2023-05-07T13:32:29;4.55;;;4.35;;
39266;SDS011;24967;51.154;13.812;2023-05-07T13:34:57;4.88;;;4.07;;
39266;SDS011;24967;51.154;13.812;2023-05-07T13:37:24;5.30;;;4.60;;
39266;SDS011;24967;51.154;13.812;2023-05-07T13:39:51;5.07;;;4.78;;
39266;SDS011;24967;51.154;13.812;2023-05-07T13:42:17;4.65;;;4.35;;
39266;SDS011;24967;51.154;13.812;2023-05-07T13:44:43;4.80;;;4.40;;
39266;SDS011;24967;51.154;13.812;2023-05-07T13:47:10;4.05;;;3.83;;
39266;SDS011;24967;51.154;13.812;2023-05-07T13:49:36;5.53;;;3.97;;
39266;SDS011;24967;51.154;13.812;2023-05-07T13:52:04;4.43;;;4.07;;
39266;SDS011;24967;51.154;13.812;2023-05-07T13:54:31;4.32;;;3.92;;
39266;SDS011;24967;51.154;13.812;2023-05-07T13:56:57;4.25;;;4.05;;
39266;SDS011;24967;51.154;13.812;2023-05-07T13:59:23;5.10;;;3.53;;
39266;SDS011;24967;51.154;13.812;2023-05-07T14:01:50;4.10;;;3.80;;
39266;SDS011;24967;51.154;13.812;2023-05-07T14:04:16;4.10;;;3.80;;
39266;SDS011;24967;51.154;13.812;2023-05-07T14:06:43;4.53;;;4.22;;
39266;SDS011;24967;51.154;13.812;2023-05-07T14:09:10;3.78;;;3.58;;
39266;SDS011;24967;51.154;13.812;2023-05-07T14:11:38;3.88;;;3.67;;
39266;SDS011;24967;51.154;13.812;2023-05-07T14:14:04;4.03;;;3.55;;
39266;SDS011;24967;51.154;13.812;2023-05-07T14:16:31;4.03;;;3.75;;
39266;SDS011;24967;51.154;13.812;2023-05-07T14:18:57;4.13;;;3.72;;
39266;SDS011;24967;51.154;13.812;2023-05-07T14:21:25;3.75;;;3.38;;
39266;SDS011;24967;51.154;13.812;2023-05-07T14:23:51;4.10;;;3.90;;
39266;SDS011;24967;51.154;13.812;2023-05-07T14:26:19;3.90;;;3.58;;
39266;SDS011;24967;51.154;13.812;2023-05-07T14:28:46;4.18;;;3.90;;
39266;SDS011;24967;51.154;13.812;2023-05-07T14:31:12;4.28;;;3.88;;
39266;SDS011;24967;51.154;13.812;2023-05-07T14:33:39;3.92;;;3.72;;
39266;SDS011;24967;51.154;13.812;2023-05-07T14:36:05;4.97;;;4.25;;